Time;durP1;ratioP1;P1;durP2;ratioP2;P2;SDS_P1;SDS_P2;PMS_P1;PMS_P2;Temp;Humidity;BMP_temperature;BMP_pressure;BME280_temperature;BME280_humidity;BME280_pressure;Samples;Min_cycle;Max_cycle;Signal;HPM_P1;HPM_P2
2023/05/05 00:00:50;;;;;;;9.48;5.93;;;14.70;99.90;;;;;;4969516;28;20262;-64
2023/05/05 00:03:18;;;;;;;12.95;5.65;;;14.60;99.90;;;;;;4959595;28;20086;-64
2023/05/05 00:05:43;;;;;;;9.63;5.60;;;14.60;99.90;;;;;;4970168;28;20157;-64
2023/05/05 00:08:09;;;;;;;10.82;5.85;;;14.50;99.90;;;;;;4971154;28;20407;-64
2023/05/05 00:10:35;;;;;;;9.10;5.68;;;14.50;99.90;;;;;;4970850;28;20065;-64
2023/05/05 00:13:01;;;;;;;12.88;5.78;;;14.50;99.90;;;;;;4936217;28;20134;-65
2023/05/05 00:15:26;;;;;;;10.55;5.72;;;14.30;99.90;;;;;;4969169;28;20173;-64
2023/05/05 00:17:52;;;;;;;8.93;5.97;;;14.40;99.90;;;;;;4970597;28;20194;-65
2023/05/05 00:20:17;;;;;;;9.07;5.72;;;14.40;99.90;;;;;;4966530;28;20494;-64
2023/05/05 00:22:43;;;;;;;10.23;5.95;;;14.40;99.90;;;;;;4967655;28;20042;-64
2023/05/05 00:25:09;;;;;;;9.95;5.90;;;14.40;99.90;;;;;;4971584;28;20058;-64
2023/05/05 00:27:34;;;;;;;10.77;5.60;;;14.50;99.90;;;;;;4955431;28;20050;-65
2023/05/05 00:30:00;;;;;;;10.23;5.80;;;14.30;99.90;;;;;;4970985;28;20482;-64
2023/05/05 00:32:26;;;;;;;9.20;5.60;;;14.40;99.90;;;;;;4969854;28;20043;-65
2023/05/05 00:34:52;;;;;;;9.27;5.97;;;14.30;99.90;;;;;;4965924;28;20090;-65
2023/05/05 00:37:18;;;;;;;13.10;5.93;;;14.40;99.90;;;;;;4969019;28;20035;-65
2023/05/05 00:39:43;;;;;;;10.95;5.72;;;14.40;99.90;;;;;;4966691;28;20097;-63
2023/05/05 00:42:09;;;;;;;12.63;5.97;;;14.30;99.90;;;;;;4963498;28;20042;-64
2023/05/05 00:44:40;;;;;;;11.63;5.85;;;14.30;99.90;;;;;;4967093;28;20042;-65
2023/05/05 00:47:11;;;;;;;9.32;5.82;;;14.30;99.90;;;;;;4965475;28;20054;-65
2023/05/05 00:49:37;;;;;;;8.85;6.07;;;14.20;99.90;;;;;;4966414;28;20174;-64
2023/05/05 00:52:04;;;;;;;16.98;6.50;;;14.20;99.90;;;;;;4952364;28;20118;-63
2023/05/05 00:54:29;;;;;;;9.25;5.80;;;14.20;99.90;;;;;;4964208;28;20146;-65
2023/05/05 00:56:55;;;;;;;9.70;5.78;;;14.20;99.90;;;;;;4970989;28;20149;-65
2023/05/05 00:59:21;;;;;;;9.77;5.95;;;14.20;99.90;;;;;;4969951;28;20039;-65
2023/05/05 01:01:47;;;;;;;9.65;6.35;;;14.10;99.90;;;;;;4966397;28;20047;-64
2023/05/05 01:04:12;;;;;;;11.02;6.10;;;14.20;99.90;;;;;;4970777;28;20049;-64
2023/05/05 01:07:09;;;;;;;11.50;6.50;;;14.10;99.90;;;;;;4968486;28;20043;-65
2023/05/05 01:09:48;;;;;;;12.77;6.82;;;14.20;99.90;;;;;;4967147;28;20062;-64
2023/05/05 01:12:13;;;;;;;9.55;6.95;;;14.10;99.90;;;;;;4968795;28;20126;-64
2023/05/05 01:14:44;;;;;;;10.55;6.50;;;14.10;99.90;;;;;;4969343;28;20408;-64
2023/05/05 01:17:23;;;;;;;12.57;6.70;;;14.10;99.90;;;;;;4967293;28;20042;-64
2023/05/05 01:20:09;;;;;;;11.75;6.22;;;14.10;99.90;;;;;;4966854;28;20054;-63
2023/05/05 01:22:44;;;;;;;11.52;6.43;;;14.10;99.90;;;;;;4969173;28;20051;-64
2023/05/05 01:25:42;;;;;;;8.93;6.10;;;14.10;99.90;;;;;;4968407;28;20134;-64
2023/05/05 01:28:38;;;;;;;11.23;6.35;;;14.10;99.90;;;;;;4928037;28;20055;-64
2023/05/05 01:31:25;;;;;;;11.50;6.30;;;14.10;99.90;;;;;;4973844;28;20055;-64
2023/05/05 01:34:00;;;;;;;11.57;6.78;;;14.10;99.90;;;;;;4974269;28;20128;-65
2023/05/05 01:36:42;;;;;;;11.68;7.22;;;14.00;99.90;;;;;;4968984;28;20417;-65
2023/05/05 01:39:14;;;;;;;10.27;6.35;;;14.00;99.90;;;;;;4972188;28;20122;-65
2023/05/05 01:41:44;;;;;;;9.93;6.15;;;14.00;99.90;;;;;;4973357;28;20058;-65
2023/05/05 01:44:12;;;;;;;11.13;6.80;;;14.00;99.90;;;;;;4974452;28;20137;-65
2023/05/05 01:46:37;;;;;;;10.68;6.75;;;14.00;99.90;;;;;;4970190;28;20065;-64
2023/05/05 01:49:06;;;;;;;12.48;7.30;;;13.90;99.90;;;;;;4972399;28;20047;-64
2023/05/05 01:51:33;;;;;;;9.38;6.57;;;13.90;99.90;;;;;;4973258;28;20039;-64
2023/05/05 01:54:03;;;;;;;9.45;7.20;;;13.80;99.90;;;;;;4975025;28;20051;-64
2023/05/05 01:56:30;;;;;;;13.63;6.78;;;13.90;99.90;;;;;;4962436;28;20091;-64
2023/05/05 01:58:58;;;;;;;11.50;6.78;;;13.80;99.90;;;;;;4938565;29;20035;-65
2023/05/05 02:01:25;;;;;;;12.32;7.30;;;13.90;99.90;;;;;;4955608;29;20059;-65
2023/05/05 02:03:53;;;;;;;9.63;7.30;;;13.80;99.90;;;;;;4955477;28;20051;-64
2023/05/05 02:06:20;;;;;;;9.98;6.82;;;13.80;99.90;;;;;;4971619;28;20062;-64
2023/05/05 02:08:47;;;;;;;11.77;7.50;;;13.80;99.90;;;;;;4959686;28;20321;-64
2023/05/05 02:11:13;;;;;;;11.73;7.10;;;13.80;99.90;;;;;;4955395;29;20055;-64
2023/05/05 02:13:41;;;;;;;10.50;7.22;;;13.80;99.90;;;;;;4955410;28;20053;-64
2023/05/05 02:16:09;;;;;;;10.70;7.10;;;13.70;99.90;;;;;;4954838;28;20455;-64
2023/05/05 02:18:36;;;;;;;10.35;6.85;;;13.70;99.90;;;;;;4973393;28;20058;-64
2023/05/05 02:21:02;;;;;;;12.48;7.55;;;13.70;99.90;;;;;;4957268;28;20522;-65
2023/05/05 02:23:29;;;;;;;10.15;7.00;;;13.70;99.90;;;;;;4973098;28;20066;-64
2023/05/05 02:26:02;;;;;;;12.00;7.30;;;13.60;99.90;;;;;;4968552;28;20154;-64
2023/05/05 02:28:57;;;;;;;12.95;7.82;;;13.60;99.90;;;;;;4970625;28;20043;-64
2023/05/05 02:31:26;;;;;;;9.95;6.90;;;13.50;99.90;;;;;;4962305;28;20142;-64
2023/05/05 02:33:54;;;;;;;9.73;7.38;;;13.50;99.90;;;;;;4972519;28;20047;-63
2023/05/05 02:36:22;;;;;;;11.55;8.18;;;13.50;99.90;;;;;;4967213;28;20466;-65
2023/05/05 02:38:53;;;;;;;12.73;7.30;;;13.50;99.90;;;;;;4966191;28;20039;-65
2023/05/05 02:41:21;;;;;;;9.13;7.47;;;13.50;99.90;;;;;;4971891;28;20042;-64
2023/05/05 02:43:49;;;;;;;10.15;7.70;;;13.40;99.90;;;;;;4971287;28;20057;-65
2023/05/05 02:46:15;;;;;;;14.07;7.68;;;13.40;99.90;;;;;;4969532;28;20462;-65
2023/05/05 02:48:41;;;;;;;13.32;8.27;;;13.40;99.90;;;;;;4965378;28;20126;-65
2023/05/05 02:51:06;;;;;;;11.68;7.88;;;13.40;99.90;;;;;;4965452;28;20389;-65
2023/05/05 02:53:33;;;;;;;12.20;7.97;;;13.40;99.90;;;;;;4967727;28;20047;-64
2023/05/05 02:56:13;;;;;;;10.85;7.78;;;13.40;99.90;;;;;;4972855;28;20035;-65
2023/05/05 02:58:48;;;;;;;10.80;8.13;;;13.40;99.90;;;;;;4964817;28;20118;-65
2023/05/05 03:01:36;;;;;;;;;;;13.40;99.90;;;;;;4967326;28;20047;-64
2023/05/05 03:04:06;;;;;;;11.80;8.55;;;13.40;99.90;;;;;;4960981;28;20061;-65
2023/05/05 03:06:35;;;;;;;12.73;8.48;;;13.40;99.90;;;;;;4970176;28;20069;-65
2023/05/05 03:09:29;;;;;;;12.90;8.93;;;13.50;99.90;;;;;;4974193;28;20121;-64
2023/05/05 03:12:04;;;;;;;10.88;8.23;;;13.50;99.90;;;;;;4968464;28;20146;-65
2023/05/05 03:14:37;;;;;;;15.43;9.70;;;13.50;99.90;;;;;;4972685;28;20035;-64
2023/05/05 03:17:05;;;;;;;14.75;10.05;;;13.50;99.90;;;;;;4968829;28;20034;-64
2023/05/05 03:19:33;;;;;;;13.05;9.52;;;13.40;99.90;;;;;;4973277;28;20606;-65
2023/05/05 03:21:59;;;;;;;13.52;10.18;;;13.40;99.90;;;;;;4973210;28;20126;-64
2023/05/05 03:24:25;;;;;;;12.15;8.82;;;13.20;99.90;;;;;;4973223;28;20063;-64
2023/05/05 03:26:50;;;;;;;14.25;9.85;;;13.20;99.90;;;;;;4971600;28;20128;-64
2023/05/05 03:29:16;;;;;;;15.77;10.60;;;13.30;99.90;;;;;;4972133;28;20126;-64
2023/05/05 03:31:41;;;;;;;15.15;10.80;;;13.20;99.90;;;;;;4953493;28;20134;-65
2023/05/05 03:34:07;;;;;;;13.57;9.73;;;13.10;99.90;;;;;;4971409;28;20038;-65
2023/05/05 03:36:34;;;;;;;12.27;9.63;;;13.10;99.90;;;;;;4967372;28;20548;-65
2023/05/05 03:39:00;;;;;;;18.27;11.40;;;13.10;99.90;;;;;;4956257;28;20046;-66
2023/05/05 03:41:26;;;;;;;20.42;11.50;;;13.10;99.90;;;;;;4966689;28;20123;-65
2023/05/05 03:43:52;;;;;;;20.00;12.35;;;13.10;99.90;;;;;;4955205;28;20098;-65
2023/05/05 03:46:18;;;;;;;19.75;11.75;;;13.10;99.90;;;;;;4969676;28;20046;-65
2023/05/05 03:48:43;;;;;;;20.80;12.13;;;13.00;99.90;;;;;;4958546;28;20047;-64
2023/05/05 03:51:09;;;;;;;18.08;11.05;;;13.00;99.90;;;;;;4967741;28;20490;-65
2023/05/05 03:53:35;;;;;;;14.88;10.98;;;13.00;99.90;;;;;;4972805;28;20478;-65
2023/05/05 03:56:00;;;;;;;15.77;10.23;;;13.00;99.90;;;;;;4972227;28;20058;-64
2023/05/05 03:58:26;;;;;;;17.30;11.85;;;13.00;99.90;;;;;;4969173;28;20058;-64
2023/05/05 04:00:52;;;;;;;13.18;10.05;;;13.10;99.90;;;;;;4971571;28;20035;-64
2023/05/05 04:03:17;;;;;;;18.13;11.05;;;13.10;99.90;;;;;;4964920;28;20781;-64
2023/05/05 04:05:43;;;;;;;16.17;11.73;;;13.10;99.90;;;;;;4972537;28;20105;-63
2023/05/05 04:08:08;;;;;;;14.98;10.95;;;13.10;99.90;;;;;;4972995;28;20062;-64
2023/05/05 04:10:34;;;;;;;14.85;11.05;;;13.10;99.90;;;;;;4965920;28;20367;-64
2023/05/05 04:13:00;;;;;;;15.13;10.80;;;13.10;99.90;;;;;;4963752;28;20097;-64
2023/05/05 04:15:25;;;;;;;17.92;12.68;;;13.00;99.90;;;;;;4970807;28;20177;-64
2023/05/05 04:17:51;;;;;;;14.27;11.65;;;13.00;99.90;;;;;;4972454;28;20043;-64
2023/05/05 04:20:16;;;;;;;15.70;11.15;;;12.90;99.90;;;;;;4970546;28;20050;-64
2023/05/05 04:22:42;;;;;;;14.05;10.95;;;12.90;99.90;;;;;;4953329;29;20039;-64
2023/05/05 04:25:08;;;;;;;14.68;11.23;;;12.90;99.90;;;;;;4953165;28;20051;-64
2023/05/05 04:27:34;;;;;;;16.48;11.65;;;12.90;99.90;;;;;;4966057;28;20055;-64
2023/05/05 04:29:59;;;;;;;14.90;11.95;;;12.90;99.90;;;;;;4972825;28;20142;-64
2023/05/05 04:32:25;;;;;;;16.60;12.18;;;12.80;99.90;;;;;;4966772;28;20653;-64
2023/05/05 04:34:52;;;;;;;16.77;11.75;;;12.90;99.90;;;;;;4971918;28;20178;-64
2023/05/05 04:37:17;;;;;;;15.95;12.23;;;12.90;99.90;;;;;;4952870;29;20137;-64
2023/05/05 04:39:43;;;;;;;14.55;11.60;;;12.80;99.90;;;;;;4959227;28;20082;-64
2023/05/05 04:42:09;;;;;;;17.20;12.43;;;12.90;99.90;;;;;;4963038;28;20043;-64
2023/05/05 04:44:35;;;;;;;14.57;11.85;;;12.90;99.90;;;;;;4954465;28;20047;-65
2023/05/05 04:47:00;;;;;;;17.08;11.02;;;12.90;99.90;;;;;;4966597;28;20047;-64
2023/05/05 04:49:29;;;;;;;15.57;12.75;;;12.80;99.90;;;;;;4968417;28;20039;-65
2023/05/05 04:51:55;;;;;;;15.88;12.68;;;12.80;99.90;;;;;;4971271;28;20130;-65
2023/05/05 04:54:21;;;;;;;17.10;12.75;;;12.80;99.90;;;;;;4970681;28;20142;-64
2023/05/05 04:56:47;;;;;;;17.23;12.07;;;12.80;99.90;;;;;;4968928;28;20049;-65
2023/05/05 04:59:13;;;;;;;15.02;12.60;;;12.80;99.90;;;;;;4969774;28;20059;-64
2023/05/05 05:01:39;;;;;;;15.43;12.70;;;12.90;99.90;;;;;;4970946;28;20047;-63
2023/05/05 05:04:06;;;;;;;17.23;13.98;;;12.90;99.90;;;;;;4967006;28;20122;-64
2023/05/05 05:06:32;;;;;;;17.15;12.88;;;13.00;99.90;;;;;;4965619;28;20161;-65
2023/05/05 05:08:58;;;;;;;19.73;14.90;;;13.00;99.90;;;;;;4969728;28;20057;-65
2023/05/05 05:11:24;;;;;;;17.17;13.05;;;13.20;99.90;;;;;;4969629;28;20051;-65
2023/05/05 05:13:50;;;;;;;16.73;12.73;;;13.30;99.90;;;;;;4945802;28;20047;-65
2023/05/05 05:16:15;;;;;;;15.50;12.52;;;13.40;99.90;;;;;;4967849;28;20090;-65
2023/05/05 05:18:41;;;;;;;17.67;12.38;;;13.50;99.90;;;;;;4952203;28;20058;-65
2023/05/05 05:21:07;;;;;;;14.80;12.40;;;13.60;99.90;;;;;;4965713;28;20220;-65
2023/05/05 05:23:32;;;;;;;14.65;12.55;;;13.80;99.90;;;;;;4971032;28;20437;-65
2023/05/05 05:25:58;;;;;;;17.98;12.27;;;13.90;99.90;;;;;;4970952;28;20509;-64
2023/05/05 05:28:24;;;;;;;14.30;12.43;;;13.90;99.90;;;;;;4965980;28;20063;-65
2023/05/05 05:30:51;;;;;;;15.57;11.95;;;14.00;99.90;;;;;;4968410;28;20143;-65
2023/05/05 05:33:17;;;;;;;15.35;11.77;;;14.10;99.90;;;;;;4968920;28;20043;-65
2023/05/05 05:35:43;;;;;;;17.50;12.38;;;14.10;99.90;;;;;;4970840;28;20480;-63
2023/05/05 05:38:08;;;;;;;16.23;11.88;;;14.10;99.90;;;;;;4963180;28;20050;-65
2023/05/05 05:40:35;;;;;;;15.32;12.60;;;14.10;99.90;;;;;;4971549;28;20046;-65
2023/05/05 05:43:01;;;;;;;16.77;12.30;;;14.20;99.90;;;;;;4970167;28;20648;-65
2023/05/05 05:45:27;;;;;;;15.60;12.30;;;14.30;99.90;;;;;;4961910;28;20046;-65
2023/05/05 05:47:53;;;;;;;15.52;12.55;;;14.30;99.90;;;;;;4966051;28;20471;-65
2023/05/05 05:50:18;;;;;;;16.90;12.55;;;14.30;99.90;;;;;;4969667;28;21747;-64
2023/05/05 05:52:44;;;;;;;15.98;12.52;;;14.30;99.90;;;;;;4968933;28;20454;-64
2023/05/05 05:55:09;;;;;;;15.90;12.50;;;14.50;99.90;;;;;;4968088;28;20069;-65
2023/05/05 05:57:35;;;;;;;15.57;11.95;;;14.60;99.90;;;;;;4961192;28;20058;-65
2023/05/05 06:00:00;;;;;;;17.75;12.07;;;14.70;99.90;;;;;;4970995;28;20405;-65
2023/05/05 06:02:26;;;;;;;16.52;12.05;;;14.80;99.90;;;;;;4966321;28;20065;-65
2023/05/05 06:04:52;;;;;;;16.70;12.10;;;14.80;99.90;;;;;;4952849;28;20050;-65
2023/05/05 06:07:17;;;;;;;14.10;11.65;;;14.90;99.90;;;;;;4965068;28;20084;-65
2023/05/05 06:09:43;;;;;;;14.35;11.43;;;15.00;99.90;;;;;;4973768;28;20054;-65
2023/05/05 06:12:08;;;;;;;14.32;11.35;;;15.10;99.90;;;;;;4973002;28;20411;-65
2023/05/05 06:14:34;;;;;;;14.93;11.85;;;15.20;99.90;;;;;;4973948;28;20038;-66
2023/05/05 06:17:00;;;;;;;13.98;11.23;;;15.40;99.90;;;;;;4968564;28;20035;-65
2023/05/05 06:19:26;;;;;;;14.93;11.82;;;15.50;99.90;;;;;;4973653;28;20522;-66
2023/05/05 06:21:51;;;;;;;16.23;12.23;;;15.60;99.90;;;;;;4966455;28;20130;-65
2023/05/05 06:24:17;;;;;;;14.57;11.27;;;15.70;99.90;;;;;;4974492;28;20121;-65
2023/05/05 06:26:42;;;;;;;15.75;12.70;;;15.80;99.90;;;;;;4971666;28;20051;-66
2023/05/05 06:29:08;;;;;;;15.70;12.32;;;15.90;99.90;;;;;;4966891;28;20039;-65
2023/05/05 06:31:34;;;;;;;20.27;12.30;;;16.00;99.90;;;;;;4971829;28;20121;-65
2023/05/05 06:34:00;;;;;;;14.93;12.30;;;16.00;99.90;;;;;;4964948;28;20070;-65
2023/05/05 06:36:26;;;;;;;17.35;12.25;;;16.20;99.90;;;;;;4970867;28;20071;-66
2023/05/05 06:38:52;;;;;;;15.38;12.32;;;16.30;99.90;;;;;;4961996;28;20095;-65
2023/05/05 06:41:18;;;;;;;14.75;11.43;;;16.30;99.90;;;;;;4969211;28;20097;-65
2023/05/05 06:43:44;;;;;;;15.32;12.18;;;16.50;99.90;;;;;;4970703;28;20046;-65
2023/05/05 06:46:09;;;;;;;16.83;12.27;;;16.60;99.90;;;;;;4970755;28;20046;-65
2023/05/05 06:48:35;;;;;;;14.35;11.88;;;16.70;99.90;;;;;;4971727;28;20046;-65
2023/05/05 06:51:01;;;;;;;17.52;13.40;;;16.80;99.90;;;;;;4967575;28;20062;-65
2023/05/05 06:53:27;;;;;;;15.23;12.27;;;16.90;99.90;;;;;;4971355;28;20434;-65
2023/05/05 06:55:52;;;;;;;17.55;13.18;;;17.00;99.90;;;;;;4965983;28;20046;-65
2023/05/05 06:58:18;;;;;;;17.67;12.20;;;17.00;99.90;;;;;;4973847;28;20070;-64
2023/05/05 07:00:44;;;;;;;17.60;13.35;;;17.10;99.90;;;;;;4958322;28;20047;-64
2023/05/05 07:03:10;;;;;;;18.30;13.40;;;17.20;99.90;;;;;;4972702;28;20149;-65
2023/05/05 07:05:36;;;;;;;15.98;12.73;;;17.20;99.90;;;;;;4969216;28;20089;-64
2023/05/05 07:08:01;;;;;;;21.17;14.02;;;17.20;99.90;;;;;;4968220;28;20508;-64
2023/05/05 07:10:27;;;;;;;18.17;13.93;;;17.40;99.90;;;;;;4971239;28;20050;-65
2023/05/05 07:12:53;;;;;;;19.83;14.32;;;17.50;99.90;;;;;;4967150;28;20043;-65
2023/05/05 07:15:20;;;;;;;20.55;14.95;;;17.50;99.90;;;;;;4971687;28;20043;-65
2023/05/05 07:17:46;;;;;;;19.48;14.52;;;17.50;99.90;;;;;;4970359;28;20039;-65
2023/05/05 07:20:11;;;;;;;21.42;15.88;;;17.30;99.90;;;;;;4953301;28;20105;-66
2023/05/05 07:22:37;;;;;;;24.67;16.88;;;17.50;99.90;;;;;;4971840;28;20045;-65
2023/05/05 07:25:03;;;;;;;25.63;17.13;;;17.40;99.90;;;;;;4954657;28;20051;-66
2023/05/05 07:27:31;;;;;;;23.40;16.98;;;17.50;99.90;;;;;;4968802;28;20091;-65
2023/05/05 07:29:57;;;;;;;24.10;16.45;;;17.50;99.90;;;;;;4953075;28;20056;-65
2023/05/05 07:32:22;;;;;;;26.70;16.60;;;17.50;99.90;;;;;;4970524;28;20085;-66
2023/05/05 07:34:48;;;;;;;21.85;16.42;;;17.60;99.90;;;;;;4971446;28;20047;-66
2023/05/05 07:37:13;;;;;;;25.90;16.08;;;17.70;99.90;;;;;;4971759;28;20093;-66
2023/05/05 07:39:39;;;;;;;22.23;16.15;;;17.80;99.90;;;;;;4970758;28;20051;-66
2023/05/05 07:42:06;;;;;;;23.90;17.98;;;18.00;99.90;;;;;;4968045;28;20073;-65
2023/05/05 07:44:31;;;;;;;18.40;14.45;;;17.90;99.90;;;;;;4972292;28;20051;-65
2023/05/05 07:46:57;;;;;;;21.17;15.50;;;18.00;99.90;;;;;;4970205;28;20050;-65
2023/05/05 07:49:23;;;;;;;21.98;15.02;;;18.10;99.90;;;;;;4969945;28;20118;-65
2023/05/05 07:51:49;;;;;;;19.88;13.85;;;18.30;99.90;;;;;;4971359;28;20387;-64
2023/05/05 07:54:15;;;;;;;20.58;14.27;;;18.30;99.90;;;;;;4970245;28;20062;-65
2023/05/05 07:56:41;;;;;;;20.10;14.45;;;18.50;99.90;;;;;;4971984;28;20051;-64
2023/05/05 07:59:07;;;;;;;19.45;13.90;;;18.60;99.90;;;;;;4970831;28;20098;-63
2023/05/05 08:01:32;;;;;;;19.33;14.23;;;18.60;99.90;;;;;;4969248;28;20039;-64
2023/05/05 08:03:58;;;;;;;17.98;13.30;;;18.80;99.90;;;;;;4971995;28;20043;-65
2023/05/05 08:06:24;;;;;;;18.13;13.48;;;19.00;99.90;;;;;;4956394;28;20039;-64
2023/05/05 08:08:52;;;;;;;18.90;14.60;;;19.10;99.90;;;;;;4968617;28;20042;-65
2023/05/05 08:11:17;;;;;;;19.23;14.32;;;19.30;99.90;;;;;;4955184;28;20089;-64
2023/05/05 08:13:43;;;;;;;18.30;13.15;;;19.20;99.90;;;;;;4972907;28;20070;-64
2023/05/05 08:16:09;;;;;;;17.48;12.40;;;19.40;99.90;;;;;;4957177;28;20092;-65
2023/05/05 08:18:36;;;;;;;16.33;12.30;;;19.40;99.90;;;;;;4972586;28;20042;-64
2023/05/05 08:21:06;;;;;;;16.52;11.57;;;19.50;99.90;;;;;;4971661;28;20047;-65
2023/05/05 08:23:33;;;;;;;17.67;11.68;;;19.50;99.90;;;;;;4960404;28;20049;-65
2023/05/05 08:25:59;;;;;;;12.93;9.80;;;19.60;99.90;;;;;;4953049;28;20471;-65
2023/05/05 08:28:25;;;;;;;14.93;10.43;;;19.50;99.90;;;;;;4959312;28;20061;-65
2023/05/05 08:30:51;;;;;;;14.60;9.50;;;19.40;99.90;;;;;;4956233;28;20442;-64
2023/05/05 08:33:17;;;;;;;14.23;8.93;;;19.40;99.90;;;;;;4971521;28;20039;-65
2023/05/05 08:35:42;;;;;;;11.15;7.57;;;19.40;99.90;;;;;;4954515;28;20045;-64
2023/05/05 08:38:09;;;;;;;12.63;7.38;;;19.40;99.90;;;;;;4952917;28;20490;-64
2023/05/05 08:40:38;;;;;;;8.25;5.43;;;19.30;99.90;;;;;;4965164;28;20498;-64
2023/05/05 08:43:04;;;;;;;11.07;5.32;;;19.30;99.90;;;;;;4972227;28;20051;-64
2023/05/05 08:45:30;;;;;;;9.65;5.05;;;19.20;99.90;;;;;;4967241;28;20138;-65
2023/05/05 08:47:59;;;;;;;7.07;4.85;;;19.20;99.90;;;;;;4963594;28;20035;-64
2023/05/05 08:50:27;;;;;;;9.82;5.55;;;19.20;99.90;;;;;;4954600;28;20118;-64
2023/05/05 08:53:15;;;;;;;10.02;5.47;;;19.30;99.90;;;;;;4952586;29;20074;-64
2023/05/05 08:55:49;;;;;;;8.38;5.80;;;19.30;99.90;;;;;;4952771;29;20130;-64
2023/05/05 08:58:17;;;;;;;10.55;6.15;;;19.40;99.90;;;;;;4952985;28;20047;-64
2023/05/05 09:00:44;;;;;;;10.65;6.10;;;19.50;99.90;;;;;;4955393;28;20237;-65
2023/05/05 09:03:10;;;;;;;9.40;5.72;;;19.60;99.90;;;;;;4969808;28;20046;-65
2023/05/05 09:05:37;;;;;;;10.25;5.30;;;19.60;99.90;;;;;;4971260;28;20046;-65
2023/05/05 09:08:07;;;;;;;10.32;6.20;;;19.70;99.90;;;;;;4970104;28;20046;-65
2023/05/05 09:10:34;;;;;;;9.15;5.93;;;19.80;99.90;;;;;;4968140;28;20066;-64
2023/05/05 09:12:59;;;;;;;10.32;5.95;;;19.80;99.90;;;;;;4970799;28;20050;-65
2023/05/05 09:15:27;;;;;;;9.55;5.65;;;19.80;99.90;;;;;;4968733;28;20050;-65
2023/05/05 09:17:56;;;;;;;10.13;5.82;;;19.90;99.90;;;;;;4968778;28;20125;-66
2023/05/05 09:20:21;;;;;;;10.00;5.60;;;20.00;99.90;;;;;;4969681;28;20523;-65
2023/05/05 09:22:47;;;;;;;8.95;5.20;;;20.10;99.90;;;;;;4947905;28;20055;-66
2023/05/05 09:25:17;;;;;;;9.35;5.78;;;20.10;99.90;;;;;;4967702;28;20055;-65
2023/05/05 09:27:47;;;;;;;39.35;14.60;;;20.20;99.90;;;;;;4968405;28;20047;-64
2023/05/05 09:30:31;;;;;;;14.75;7.65;;;20.40;99.90;;;;;;4969904;28;20061;-65
2023/05/05 09:32:56;;;;;;;12.65;7.18;;;20.60;99.90;;;;;;4968658;28;20100;-65
2023/05/05 09:35:22;;;;;;;25.13;11.57;;;20.70;99.90;;;;;;4971338;28;20469;-67
2023/05/05 09:37:48;;;;;;;16.45;8.55;;;20.90;99.90;;;;;;4960712;28;20069;-67
2023/05/05 09:40:16;;;;;;;9.63;5.93;;;21.10;99.90;;;;;;4968684;28;20098;-66
2023/05/05 09:42:43;;;;;;;9.57;5.57;;;21.20;99.90;;;;;;4960689;28;20094;-65
2023/05/05 09:45:25;;;;;;;9.82;6.15;;;21.30;99.90;;;;;;4962263;28;20405;-66
2023/05/05 09:47:51;;;;;;;9.02;5.32;;;21.40;99.90;;;;;;4969078;28;20054;-66
2023/05/05 09:50:19;;;;;;;9.18;4.78;;;21.30;99.90;;;;;;4964090;28;20051;-66
2023/05/05 09:52:59;;;;;;;8.73;4.40;;;21.40;99.90;;;;;;4946587;28;20038;-66
2023/05/05 09:55:25;;;;;;;9.82;6.53;;;21.40;99.90;;;;;;4968831;28;20450;-66
2023/05/05 09:57:51;;;;;;;12.85;6.18;;;21.30;99.90;;;;;;4973181;28;20174;-66
2023/05/05 10:00:16;;;;;;;8.55;4.30;;;21.10;99.90;;;;;;4953206;28;20081;-67
2023/05/05 10:02:42;;;;;;;8.02;4.65;;;21.10;99.90;;;;;;4971270;28;20062;-67
2023/05/05 10:05:13;;;;;;;7.43;3.20;;;21.00;99.90;;;;;;4971966;28;20047;-67
2023/05/05 10:07:41;;;;;;;8.38;3.97;;;20.80;99.90;;;;;;4973972;28;20439;-66
2023/05/05 10:10:09;;;;;;;9.43;4.40;;;20.80;99.90;;;;;;4974994;28;20406;-66
2023/05/05 10:12:36;;;;;;;7.35;3.45;;;20.80;99.90;;;;;;4961200;28;20039;-66
2023/05/05 10:15:03;;;;;;;8.02;4.13;;;20.90;99.90;;;;;;4955547;29;20093;-65
2023/05/05 10:17:48;;;;;;;8.48;4.07;;;21.10;99.90;;;;;;4971421;28;20351;-66
2023/05/05 10:20:14;;;;;;;;;;;21.00;99.90;;;;;;4974313;28;20049;-67
2023/05/05 10:22:46;;;;;;;8.65;4.57;;;21.10;99.90;;;;;;4956137;28;19922;-66
2023/05/05 10:25:14;;;;;;;8.43;4.80;;;21.20;99.90;;;;;;4974085;28;20058;-66
2023/05/05 10:27:45;;;;;;;6.65;3.80;;;21.20;99.90;;;;;;4974524;28;20117;-66
2023/05/05 10:30:19;;;;;;;9.38;4.88;;;21.30;99.90;;;;;;4956780;28;20094;-67
2023/05/05 10:32:50;;;;;;;7.95;3.90;;;21.40;99.90;;;;;;4970706;28;20450;-67
2023/05/05 10:35:20;;;;;;;10.82;3.97;;;21.30;99.90;;;;;;4974124;28;20093;-66
2023/05/05 10:37:46;;;;;;;7.28;4.20;;;21.20;99.90;;;;;;4966069;28;20043;-66
2023/05/05 10:40:13;;;;;;;7.53;3.53;;;21.40;99.90;;;;;;4967974;28;20663;-61
2023/05/05 10:42:39;;;;;;;9.88;4.30;;;21.50;99.90;;;;;;4974225;28;20102;-62
2023/05/05 10:45:06;;;;;;;9.18;4.60;;;21.70;99.90;;;;;;4971930;28;20439;-63
2023/05/05 10:47:33;;;;;;;9.73;4.75;;;21.80;99.90;;;;;;4970950;28;20054;-63
2023/05/05 10:50:01;;;;;;;9.57;4.32;;;21.80;99.90;;;;;;4971217;28;20117;-62
2023/05/05 10:52:46;;;;;;;6.40;3.53;;;21.80;99.90;;;;;;4970039;28;20378;-62
2023/05/05 10:55:28;;;;;;;6.68;3.60;;;21.80;99.90;;;;;;4971653;28;20473;-65
2023/05/05 10:57:54;;;;;;;9.13;3.63;;;21.90;99.90;;;;;;4970479;28;20121;-65
2023/05/05 11:00:38;;;;;;;9.00;3.92;;;21.90;99.90;;;;;;4968896;28;20038;-64
2023/05/05 11:03:16;;;;;;;7.57;3.55;;;21.70;99.90;;;;;;4972402;28;20100;-65
2023/05/05 11:06:03;;;;;;;8.82;3.08;;;21.80;99.90;;;;;;4969800;28;20051;-65
2023/05/05 11:08:30;;;;;;;6.07;2.63;;;21.80;99.90;;;;;;4970745;28;20056;-64
2023/05/05 11:10:55;;;;;;;6.47;2.50;;;21.70;99.90;;;;;;4967632;28;20155;-64
2023/05/05 11:13:21;;;;;;;7.88;3.22;;;21.90;99.90;;;;;;4969131;28;20124;-65
2023/05/05 11:15:57;;;;;;;6.40;2.88;;;21.80;99.90;;;;;;4970414;28;20062;-64
2023/05/05 11:18:43;;;;;;;7.53;3.25;;;21.80;99.90;;;;;;4969176;28;20410;-66
2023/05/05 11:21:16;;;;;;;10.90;5.70;;;21.70;99.90;;;;;;4954196;28;20106;-65
2023/05/05 11:23:45;;;;;;;8.73;4.10;;;21.80;99.90;;;;;;4966837;28;20093;-65
2023/05/05 11:26:12;;;;;;;5.60;2.00;;;21.80;99.90;;;;;;4961318;28;20062;-65
2023/05/05 11:28:59;;;;;;;2.28;0.70;;;21.80;99.90;;;;;;4972795;28;20105;-65
2023/05/05 11:31:25;;;;;;;4.05;0.90;;;21.70;96.60;;;;;;4970910;28;20043;-65
2023/05/05 11:33:51;;;;;;;2.42;0.90;;;21.70;97.90;;;;;;4972968;28;20463;-65
2023/05/05 11:36:18;;;;;;;4.93;1.80;;;21.70;98.50;;;;;;4971736;28;20105;-64
2023/05/05 11:38:56;;;;;;;4.78;2.25;;;21.70;99.10;;;;;;4970954;28;20039;-65
2023/05/05 11:41:30;;;;;;;7.55;2.88;;;21.50;99.80;;;;;;4969150;28;20466;-66
2023/05/05 11:44:16;;;;;;;5.68;2.90;;;21.40;99.90;;;;;;4968696;28;20113;-66
2023/05/05 11:46:51;;;;;;;5.65;3.15;;;21.50;99.90;;;;;;4969582;28;20047;-66
2023/05/05 11:49:30;;;;;;;6.97;3.33;;;21.30;99.90;;;;;;4970857;28;20068;-66
2023/05/05 11:51:57;;;;;;;5.75;3.40;;;21.30;99.90;;;;;;4971904;28;20354;-66
2023/05/05 11:54:24;;;;;;;9.55;5.55;;;21.10;99.90;;;;;;4972463;28;20122;-64
2023/05/05 11:56:50;;;;;;;10.68;5.40;;;20.90;99.90;;;;;;4958389;28;20035;-66
2023/05/05 11:59:17;;;;;;;9.13;5.45;;;20.70;99.90;;;;;;4971061;28;20042;-66
2023/05/05 12:01:43;;;;;;;9.45;5.40;;;20.50;99.90;;;;;;4969256;28;20366;-64
2023/05/05 12:04:13;;;;;;;9.57;4.97;;;20.00;99.90;;;;;;4970173;28;20049;-65
2023/05/05 12:06:40;;;;;;;8.98;5.05;;;19.70;99.90;;;;;;4968562;28;20061;-64
2023/05/05 12:09:13;;;;;;;12.02;5.80;;;19.20;99.90;;;;;;4970784;28;20118;-65
2023/05/05 12:11:56;;;;;;;11.30;5.50;;;18.90;99.90;;;;;;4968002;28;20071;-66
2023/05/05 12:14:23;;;;;;;6.05;2.25;;;18.70;99.90;;;;;;4951899;28;20465;-65
2023/05/05 12:17:07;;;;;;;6.57;2.30;;;17.90;99.90;;;;;;4968053;28;20109;-66
2023/05/05 12:19:34;;;;;;;5.80;2.33;;;17.60;99.90;;;;;;4964705;28;20371;-65
2023/05/05 12:22:01;;;;;;;8.15;2.60;;;17.30;99.90;;;;;;4968135;28;20070;-65
2023/05/05 12:24:26;;;;;;;6.10;2.10;;;17.00;99.90;;;;;;4961654;28;20065;-65
2023/05/05 12:26:52;;;;;;;4.50;1.90;;;16.80;99.90;;;;;;4962568;28;20412;-65
2023/05/05 12:29:28;;;;;;;6.70;1.90;;;16.80;99.90;;;;;;4970930;28;20055;-65
2023/05/05 12:31:53;;;;;;;5.82;2.05;;;16.70;99.90;;;;;;4955066;28;20043;-65
2023/05/05 12:34:20;;;;;;;4.65;2.00;;;16.50;99.90;;;;;;4960125;28;20061;-65
2023/05/05 12:36:46;;;;;;;6.53;2.00;;;16.30;99.90;;;;;;4967426;28;20039;-65
2023/05/05 12:39:12;;;;;;;5.55;1.90;;;16.40;99.90;;;;;;4971172;28;20160;-66
2023/05/05 12:41:38;;;;;;;5.95;1.70;;;16.20;99.90;;;;;;4970892;28;20109;-66